Walla Walla Regional Airport
KALW : now visible

Airfield :











YOU CAN JOIN US ON...

 
LOGIN :

Register | Disclaimer

   EN    FR    IT 

 









Legend :    VFR   Marginal VFR   IFR   Intensive IFR   Very Intensive IFR
Visi :
Ceiling :
>= 8 km
>= 3000ft
5 to 8 km
1000 to 3000 ft
1500m to 5 km
500 to 1000 ft
800 to 1500m
200 to 500 ft
< 800m
< 200 ft
Symbols :   Thunderstorms  Fog  Heavy snow  Heavy precipitations  Wind > 20 kt






- Airport Elevation : 1194 ft
- IATA code : ALW


KALW - Walla Walla Regional

CURRENT METAR :
  • 101853Z 29011G20KT 10SM -RA FEW048 BKN070 OVC080 08/M02 A3004 RMK AO2 PK WND 24034/1758 WSHFT 1818 RAB35 SLP177 P0000 T00831017

EXPIRED METARs :
  • 101838Z 29011KT 9SM -RA SCT048 BKN055 BKN075 07/M01 A3004 RMK AO2 PK WND 24034/1758 WSHFT 1818 RAB35 P0000 T00671006
  • 101753Z 23024G32KT 10SM FEW044 SCT100 08/M02 A3003 RMK AO2 PK WND 26039/1715 SLP172 T00831017 10094 20061 53013
  • 101653Z 23021G37KT 10SM FEW070 SCT090 09/M02 A3001 RMK AO2 PK WND 25046/1635 SLP164 T00891022

TAF KALW
Valid from the 10 at 19:00 until the 11 at 18:00 UTC


101906Z 1019/1118 27024G34KT P6SM VCSH SCT045 BKN060
TEMPO 1019/1021 6SM -RA
FM110200 26015G23KT P6SM SCT060
FM110400 20010G16KT P6SM FEW060
FM110600 17008KT P6SM SKC
FM111730 30006KT P6SM SKC
KZSE FIR / North America



MET'MAP, your aeronautical weather chart ! - Copyright ORBIFLY December 2007 - Disclaimer

ORBIFLY MET'MAP TEAM :

Programming & Development : Alexandra Zaïnal
Concept & original design : Baudouin d'Aumeries
Assistance for programming : Marc-Olivier Méhu
Technical & hardware support : Manuel Goepfert

Contact : metmap@orbifly.com




SOURCES & CREDITS :

   NOAA       Earth
Advisory